Emerald Leader — C6WP4 — position and weather

sailwx.info

Track history (hours):
 
Tides and Currents Weather Stations Pressure Air Temp Water Temp Dewpoint Dewpoint Depression Visibility Wind Speed Wind Dir Waves Ship Positions

Emerald Leader

Last reported at 2016-Aug-26 12:32 UTC. Time now 2016-Aug-26 23:30 UTC.
Position N 37°22' W 009°43'.

Length 176 m; draft 8.2 m.

Type: Cargo ship. MMSI: 308688000.

Date/timePositionNaut miles runAvg speedWind from/ knotsBaromVisibWave heightAir tempDewpointWater temp
2016-Aug-26 12:32N 37°22' W 009°43'1615.9
2016-Aug-26 11:33N 37°37' W 009°48'1615.9
2016-Aug-26 10:33N 37°53' W 009°52'1615.9
2016-Aug-26 09:33N 38°08' W 009°57'1615.6
2016-Aug-26 08:33N 38°23' W 010°01'1515.1
2016-Aug-26 07:33N 38°38' W 010°05'1515.2
2016-Aug-26 06:33N 38°53' W 010°07'3115.4
2016-Aug-26 04:34N 39°23' W 009°60'1616.1
2016-Aug-26 03:32N 39°39' W 009°55'1615.8
2016-Aug-26 02:32N 39°55' W 009°51'1715.7
2016-Aug-26 01:29N 40°10' W 009°44'1615.9
2016-Aug-26 00:29N 40°26' W 009°39'414 8.1
2016-Aug-23 21:34N 47°11' W 007°45'1414.1
2016-Aug-23 20:33N 47°24' W 007°36'1313.5
2016-Aug-23 19:34N 47°36' W 007°27'1313.1
2016-Aug-23 18:33N 47°48' W 007°19'1312.6
2016-Aug-23 17:34N 47°60' W 007°12'1312.5
2016-Aug-23 16:33N 48°11' W 007°05'1313.1
2016-Aug-23 15:33N 48°23' W 006°57'1413.7
2016-Aug-23 14:34N 48°36' W 006°50'2214.5
2016-Aug-23 13:04N 48°56' W 006°37'814.7
2016-Aug-23 12:34N 49°03' W 006°32'1514.5
2016-Aug-23 11:34N 49°16' W 006°24'1414.1
2016-Aug-23 10:33N 49°29' W 006°15'1313.4
2016-Aug-23 09:33N 49°41' W 006°06'1313.1
2016-Aug-23 08:34N 49°54' W 006°01'1312.7
2016-Aug-23 07:33N 50°07' W 006°02'1511.9
2016-Aug-23 06:16N 50°22' W 005°59'811.7
2016-Aug-23 05:33N 50°28' W 005°49'1212.2
2016-Aug-23 04:33N 50°36' W 005°35'1313.0
2016-Aug-23 03:33N 50°44' W 005°19'1313.3
2016-Aug-23 02:34N 50°53' W 005°03'1413.6
2016-Aug-23 01:33N 51°02' W 004°47'1514.9
2016-Aug-23 00:34N 51°11' W 004°29'1515.3
2016-Aug-22 23:34N 51°19' W 004°08'1616.0
2016-Aug-22 22:33N 51°20' W 003°42'1414.1
2016-Aug-22 21:33N 51°21' W 003°19'10 9.8
2016-Aug-22 20:33N 51°24' W 003°04'9 9.4
2016-Aug-22 19:33N 51°29' W 002°51'5 5.0
2016-Aug-22 18:33N 51°30' W 002°44'0 0.5
2016-Aug-22 17:33N 51°30' W 002°43'0 0.0
2016-Aug-22 16:33N 51°30' W 002°43'0 0.0
2016-Aug-22 15:33N 51°30' W 002°43'0 0.0
2016-Aug-22 14:33N 51°30' W 002°43'0 0.0
2016-Aug-22 13:33N 51°30' W 002°43'0 0.0
2016-Aug-22 12:33N 51°30' W 002°43'0 0.0
2016-Aug-22 11:33N 51°30' W 002°43'0 0.0
2016-Aug-22 10:33N 51°30' W 002°43'0 0.0
2016-Aug-22 09:33N 51°30' W 002°43'0 0.0
2016-Aug-22 08:33N 51°30' W 002°43'0 0.0
2016-Aug-22 07:33N 51°30' W 002°43'0 0.0
2016-Aug-22 06:33N 51°30' W 002°43'0 0.0
2016-Aug-22 05:33N 51°30' W 002°43'0 0.0
2016-Aug-22 04:33N 51°30' W 002°43'0 0.0
2016-Aug-22 03:33N 51°30' W 002°43'0 0.0
2016-Aug-22 02:33N 51°30' W 002°43'0 0.0
2016-Aug-22 01:33N 51°30' W 002°43'0 0.0
2016-Aug-22 00:33N 51°30' W 002°43'0 0.0
2016-Aug-21 23:33N 51°30' W 002°43'0 0.0
2016-Aug-21 22:33N 51°30' W 002°43'0 0.0
2016-Aug-21 21:33N 51°30' W 002°43'0 0.0
2016-Aug-21 20:33N 51°30' W 002°43'0 0.2
2016-Aug-21 19:34N 51°30' W 002°43'1 0.8
2016-Aug-21 18:33N 51°31' W 002°44'1212.3
2016-Aug-21 17:34N 51°25' W 003°01'31 9.8
2016-Aug-21 14:26N 51°20' W 003°49'12 9.3
2016-Aug-21 13:11N 51°19' W 004°08'5 8.6
2016-Aug-21 12:33N 51°18' W 004°16'6 6.2
2016-Aug-21 11:33N 51°13' W 004°24'6 6.4
2016-Aug-21 10:34N 51°09' W 004°31'7 6.7
2016-Aug-21 09:34N 51°04' W 004°39'7 7.4
2016-Aug-21 08:34N 50°59' W 004°47'8 8.3
2016-Aug-21 07:34N 50°54' W 004°58'9 9.4
2016-Aug-21 06:33N 50°48' W 005°09'1313.2
2016-Aug-21 05:34N 50°39' W 005°25'1514.7
2016-Aug-21 04:34N 50°29' W 005°42'1212.2
2016-Aug-21 03:33N 50°20' W 005°53'13 9.7
2016-Aug-21 02:11N 50°06' W 005°54'35 7.1
2016-Aug-20 21:20N 49°52' W 005°05'8 6.7
2016-Aug-20 20:10N 49°52' W 004°52'4 6.9
2016-Aug-20 19:33N 49°53' W 004°46'7 6.4
2016-Aug-20 18:30N 49°54' W 004°35'6 5.9
2016-Aug-20 17:33N 49°54' W 004°27'8 6.4
2016-Aug-20 16:21N 49°55' W 004°15'7 7.6
2016-Aug-20 15:24N 49°55' W 004°04'7 8.8
2016-Aug-20 14:33N 49°56' W 003°52'9 9.5
2016-Aug-20 13:33N 49°56' W 003°37'9 9.5
2016-Aug-20 12:33N 49°57' W 003°23'9 8.9
2016-Aug-20 11:33N 49°59' W 003°09'8 7.6
2016-Aug-20 10:34N 49°59' W 002°57'6 6.1
2016-Aug-20 09:33N 50°00' W 002°48'6 5.4
2016-Aug-20 08:30N 50°01' W 002°39'8611.8
2016-Aug-20 01:13N 50°25' W 000°30'1015.6
2016-Aug-20 00:34N 50°27' W 000°14'1414.4
2016-Aug-19 23:33N 50°31' E 000°07'4013.0
2016-Aug-19 20:31N 50°49' E 001°03'1516.0
2016-Aug-19 19:34N 51°00' E 001°20'1616.0
2016-Aug-19 18:33N 51°10' E 001°41'1515.3
2016-Aug-19 17:34N 51°22' E 001°56'1312.6
2016-Aug-19 16:33N 51°21' E 002°16'1414.2
2016-Aug-19 15:33N 51°23' E 002°38'1211.8
2016-Aug-19 14:33N 51°23' E 002°57'10 9.9
2016-Aug-19 13:34N 51°20' E 003°13'1 0.8
2016-Aug-19 12:33N 51°20' E 003°13'1 1.0
2016-Aug-19 11:31N 51°19' E 003°13'0 0.0
2016-Aug-19 10:31N 51°19' E 003°13'0 0.0
2016-Aug-19 09:31N 51°19' E 003°13'0 0.0
2016-Aug-19 08:31N 51°19' E 003°13'0 0.0
2016-Aug-19 07:31N 51°19' E 003°13'0 0.0
2016-Aug-19 06:31N 51°19' E 003°13'0 0.0
2016-Aug-19 05:32N 51°19' E 003°13'0 0.0
2016-Aug-19 04:32N 51°19' E 003°13'0 0.0
2016-Aug-19 03:31N 51°19' E 003°13'0 0.0
2016-Aug-19 02:32N 51°19' E 003°13'0 0.0
2016-Aug-19 01:32N 51°19' E 003°13'0 0.0
2016-Aug-19 00:32N 51°19' E 003°13'0 0.0
2016-Aug-18 23:31N 51°19' E 003°13'0 0.0
2016-Aug-18 22:32N 51°19' E 003°13'0 0.0
2016-Aug-18 21:31N 51°19' E 003°13'0 0.0
2016-Aug-18 20:31N 51°19' E 003°13'0 0.0
2016-Aug-18 19:31N 51°19' E 003°13'0 0.0
2016-Aug-18 18:32N 51°19' E 003°13'0 0.0
2016-Aug-18 17:31N 51°19' E 003°13'0 0.0
2016-Aug-18 16:32N 51°19' E 003°13'0 0.0
2016-Aug-18 15:32N 51°19' E 003°13'0 0.0
2016-Aug-18 14:32N 51°19' E 003°13'0 0.0
2016-Aug-18 13:31N 51°19' E 003°13'1 1.1
2016-Aug-18 12:31N 51°18' E 003°14'0 0.0
2016-Aug-18 11:28N 51°18' E 003°14'0 0.0
2016-Aug-18 10:31N 51°18' E 003°14'0 0.0
2016-Aug-18 09:31N 51°18' E 003°14'0 0.0
2016-Aug-18 08:31N 51°18' E 003°14'0 0.0
2016-Aug-18 07:28N 51°18' E 003°14'0 0.0
2016-Aug-18 06:31N 51°18' E 003°14'0 0.0
2016-Aug-18 05:31N 51°18' E 003°14'0 0.0
2016-Aug-18 04:31N 51°18' E 003°14'0 0.0
2016-Aug-18 03:31N 51°18' E 003°14'0 0.0
2016-Aug-18 02:31N 51°18' E 003°14'0 0.0
2016-Aug-18 01:31N 51°18' E 003°14'0 0.0
2016-Aug-18 00:31N 51°18' E 003°14'0 0.0
2016-Aug-17 23:31N 51°18' E 003°14'0 0.0
2016-Aug-17 22:31N 51°18' E 003°14'0 0.0
2016-Aug-17 21:31N 51°18' E 003°14'0 0.0
2016-Aug-17 20:31N 51°18' E 003°14'0 0.0
2016-Aug-17 19:31N 51°18' E 003°14'0 0.0
2016-Aug-17 18:31N 51°18' E 003°14'0 0.0
2016-Aug-17 17:31N 51°18' E 003°14'0 0.0
2016-Aug-17 16:31N 51°18' E 003°14'0 0.1
2016-Aug-17 15:34N 51°18' E 003°14'2 2.3
2016-Aug-17 14:33N 51°20' E 003°13'8 8.2
2016-Aug-17 13:33N 51°25' E 003°02'1110.6
2016-Aug-17 12:33N 51°24' E 002°45'5 5.4
2016-Aug-17 11:33N 51°27' E 002°38'0 0.1
2016-Aug-17 10:33N 51°27' E 002°38'0 0.0
2016-Aug-17 09:27N 51°27' E 002°38'0 0.0
2016-Aug-17 08:33N 51°27' E 002°38'0 0.0
2016-Aug-17 07:30N 51°27' E 002°38'0 0.0
2016-Aug-17 06:18N 51°27' E 002°38'0 0.0
2016-Aug-17 05:30N 51°27' E 002°38'0 0.0
2016-Aug-17 04:30N 51°27' E 002°38'0 0.0
2016-Aug-17 03:30N 51°27' E 002°38'0 0.0
2016-Aug-17 02:33N 51°27' E 002°38'0 0.1
2016-Aug-17 01:33N 51°27' E 002°38'0 0.0
2016-Aug-17 00:30N 51°27' E 002°38'0 0.1
2016-Aug-16 23:33N 51°27' E 002°38'0 0.1
2016-Aug-16 22:33N 51°27' E 002°38'0 0.0
2016-Aug-16 21:33N 51°27' E 002°38'0 0.2
2016-Aug-16 20:33N 51°27' E 002°38'4 4.4
2016-Aug-16 19:33N 51°28' E 002°45'5 4.8
2016-Aug-16 18:34N 51°23' E 002°43'1111.2
2016-Aug-16 17:33N 51°24' E 003°01'9 8.5
2016-Aug-16 16:32N 51°20' E 003°13'0 0.0
2016-Aug-16 15:32N 51°20' E 003°13'1 1.3
2016-Aug-16 14:33N 51°19' E 003°13'0 0.0
2016-Aug-16 13:33N 51°19' E 003°13'0 0.0
2016-Aug-16 12:33N 51°19' E 003°13'  
Track history (hours):
 
Tides and Currents Weather Stations Pressure Air Temp Water Temp Dewpoint Dewpoint Depression Visibility Wind Speed Wind Dir Waves Ship Positions

Emerald Leader

Last reported at 2016-Aug-26 12:32 UTC. Time now 2016-Aug-26 23:30 UTC.
Position N 37°22' W 009°43'.

Length 176 m; draft 8.2 m.

Type: Cargo ship. MMSI: 308688000.

Date/timePositionNaut miles runAvg speedWind from/ knotsBaromVisibWave heightAir tempDewpointWater temp
2016-Aug-26 12:32N 37°22' W 009°43'1615.9
2016-Aug-26 11:33N 37°37' W 009°48'1615.9
2016-Aug-26 10:33N 37°53' W 009°52'1615.9
2016-Aug-26 09:33N 38°08' W 009°57'1615.6
2016-Aug-26 08:33N 38°23' W 010°01'1515.1
2016-Aug-26 07:33N 38°38' W 010°05'1515.2
2016-Aug-26 06:33N 38°53' W 010°07'3115.4
2016-Aug-26 04:34N 39°23' W 009°60'1616.1
2016-Aug-26 03:32N 39°39' W 009°55'1615.8
2016-Aug-26 02:32N 39°55' W 009°51'1715.7
2016-Aug-26 01:29N 40°10' W 009°44'1615.9
2016-Aug-26 00:29N 40°26' W 009°39'414 8.1
2016-Aug-23 21:34N 47°11' W 007°45'1414.1
2016-Aug-23 20:33N 47°24' W 007°36'1313.5
2016-Aug-23 19:34N 47°36' W 007°27'1313.1
2016-Aug-23 18:33N 47°48' W 007°19'1312.6
2016-Aug-23 17:34N 47°60' W 007°12'1312.5
2016-Aug-23 16:33N 48°11' W 007°05'1313.1
2016-Aug-23 15:33N 48°23' W 006°57'1413.7
2016-Aug-23 14:34N 48°36' W 006°50'2214.5
2016-Aug-23 13:04N 48°56' W 006°37'814.7
2016-Aug-23 12:34N 49°03' W 006°32'1514.5
2016-Aug-23 11:34N 49°16' W 006°24'1414.1
2016-Aug-23 10:33N 49°29' W 006°15'1313.4
2016-Aug-23 09:33N 49°41' W 006°06'1313.1
2016-Aug-23 08:34N 49°54' W 006°01'1312.7
2016-Aug-23 07:33N 50°07' W 006°02'1511.9
2016-Aug-23 06:16N 50°22' W 005°59'811.7
2016-Aug-23 05:33N 50°28' W 005°49'1212.2
2016-Aug-23 04:33N 50°36' W 005°35'1313.0
2016-Aug-23 03:33N 50°44' W 005°19'1313.3
2016-Aug-23 02:34N 50°53' W 005°03'1413.6
2016-Aug-23 01:33N 51°02' W 004°47'1514.9
2016-Aug-23 00:34N 51°11' W 004°29'1515.3
2016-Aug-22 23:34N 51°19' W 004°08'1616.0
2016-Aug-22 22:33N 51°20' W 003°42'1414.1
2016-Aug-22 21:33N 51°21' W 003°19'10 9.8
2016-Aug-22 20:33N 51°24' W 003°04'9 9.4
2016-Aug-22 19:33N 51°29' W 002°51'5 5.0
2016-Aug-22 18:33N 51°30' W 002°44'0 0.5
2016-Aug-22 17:33N 51°30' W 002°43'0 0.0
2016-Aug-22 16:33N 51°30' W 002°43'0 0.0
2016-Aug-22 15:33N 51°30' W 002°43'0 0.0
2016-Aug-22 14:33N 51°30' W 002°43'0 0.0
2016-Aug-22 13:33N 51°30' W 002°43'0 0.0
2016-Aug-22 12:33N 51°30' W 002°43'0 0.0
2016-Aug-22 11:33N 51°30' W 002°43'0 0.0
2016-Aug-22 10:33N 51°30' W 002°43'0 0.0
2016-Aug-22 09:33N 51°30' W 002°43'0 0.0
2016-Aug-22 08:33N 51°30' W 002°43'0 0.0
2016-Aug-22 07:33N 51°30' W 002°43'0 0.0
2016-Aug-22 06:33N 51°30' W 002°43'0 0.0
2016-Aug-22 05:33N 51°30' W 002°43'0 0.0
2016-Aug-22 04:33N 51°30' W 002°43'0 0.0
2016-Aug-22 03:33N 51°30' W 002°43'0 0.0
2016-Aug-22 02:33N 51°30' W 002°43'0 0.0
2016-Aug-22 01:33N 51°30' W 002°43'0 0.0
2016-Aug-22 00:33N 51°30' W 002°43'0 0.0
2016-Aug-21 23:33N 51°30' W 002°43'0 0.0
2016-Aug-21 22:33N 51°30' W 002°43'0 0.0
2016-Aug-21 21:33N 51°30' W 002°43'0 0.0
2016-Aug-21 20:33N 51°30' W 002°43'0 0.2
2016-Aug-21 19:34N 51°30' W 002°43'1 0.8
2016-Aug-21 18:33N 51°31' W 002°44'1212.3
2016-Aug-21 17:34N 51°25' W 003°01'31 9.8
2016-Aug-21 14:26N 51°20' W 003°49'12 9.3
2016-Aug-21 13:11N 51°19' W 004°08'5 8.6
2016-Aug-21 12:33N 51°18' W 004°16'6 6.2
2016-Aug-21 11:33N 51°13' W 004°24'6 6.4
2016-Aug-21 10:34N 51°09' W 004°31'7 6.7
2016-Aug-21 09:34N 51°04' W 004°39'7 7.4
2016-Aug-21 08:34N 50°59' W 004°47'8 8.3
2016-Aug-21 07:34N 50°54' W 004°58'9 9.4
2016-Aug-21 06:33N 50°48' W 005°09'1313.2
2016-Aug-21 05:34N 50°39' W 005°25'1514.7
2016-Aug-21 04:34N 50°29' W 005°42'1212.2
2016-Aug-21 03:33N 50°20' W 005°53'13 9.7
2016-Aug-21 02:11N 50°06' W 005°54'35 7.1
2016-Aug-20 21:20N 49°52' W 005°05'8 6.7
2016-Aug-20 20:10N 49°52' W 004°52'4 6.9
2016-Aug-20 19:33N 49°53' W 004°46'7 6.4
2016-Aug-20 18:30N 49°54' W 004°35'6 5.9
2016-Aug-20 17:33N 49°54' W 004°27'8 6.4
2016-Aug-20 16:21N 49°55' W 004°15'7 7.6
2016-Aug-20 15:24N 49°55' W 004°04'7 8.8
2016-Aug-20 14:33N 49°56' W 003°52'9 9.5
2016-Aug-20 13:33N 49°56' W 003°37'9 9.5
2016-Aug-20 12:33N 49°57' W 003°23'9 8.9
2016-Aug-20 11:33N 49°59' W 003°09'8 7.6
2016-Aug-20 10:34N 49°59' W 002°57'6 6.1
2016-Aug-20 09:33N 50°00' W 002°48'6 5.4
2016-Aug-20 08:30N 50°01' W 002°39'8611.8
2016-Aug-20 01:13N 50°25' W 000°30'1015.6
2016-Aug-20 00:34N 50°27' W 000°14'1414.4
2016-Aug-19 23:33N 50°31' E 000°07'4013.0
2016-Aug-19 20:31N 50°49' E 001°03'1516.0
2016-Aug-19 19:34N 51°00' E 001°20'1616.0
2016-Aug-19 18:33N 51°10' E 001°41'1515.3
2016-Aug-19 17:34N 51°22' E 001°56'1312.6
2016-Aug-19 16:33N 51°21' E 002°16'1414.2
2016-Aug-19 15:33N 51°23' E 002°38'1211.8
2016-Aug-19 14:33N 51°23' E 002°57'10 9.9
2016-Aug-19 13:34N 51°20' E 003°13'1 0.8
2016-Aug-19 12:33N 51°20' E 003°13'1 1.0
2016-Aug-19 11:31N 51°19' E 003°13'0 0.0
2016-Aug-19 10:31N 51°19' E 003°13'0 0.0
2016-Aug-19 09:31N 51°19' E 003°13'0 0.0
2016-Aug-19 08:31N 51°19' E 003°13'0 0.0
2016-Aug-19 07:31N 51°19' E 003°13'0 0.0
2016-Aug-19 06:31N 51°19' E 003°13'0 0.0
2016-Aug-19 05:32N 51°19' E 003°13'0 0.0
2016-Aug-19 04:32N 51°19' E 003°13'0 0.0
2016-Aug-19 03:31N 51°19' E 003°13'0 0.0
2016-Aug-19 02:32N 51°19' E 003°13'0 0.0
2016-Aug-19 01:32N 51°19' E 003°13'0 0.0
2016-Aug-19 00:32N 51°19' E 003°13'0 0.0
2016-Aug-18 23:31N 51°19' E 003°13'0 0.0
2016-Aug-18 22:32N 51°19' E 003°13'0 0.0
2016-Aug-18 21:31N 51°19' E 003°13'0 0.0
2016-Aug-18 20:31N 51°19' E 003°13'0 0.0
2016-Aug-18 19:31N 51°19' E 003°13'0 0.0
2016-Aug-18 18:32N 51°19' E 003°13'0 0.0
2016-Aug-18 17:31N 51°19' E 003°13'0 0.0
2016-Aug-18 16:32N 51°19' E 003°13'0 0.0
2016-Aug-18 15:32N 51°19' E 003°13'0 0.0
2016-Aug-18 14:32N 51°19' E 003°13'0 0.0
2016-Aug-18 13:31N 51°19' E 003°13'1 1.1
2016-Aug-18 12:31N 51°18' E 003°14'0 0.0
2016-Aug-18 11:28N 51°18' E 003°14'0 0.0
2016-Aug-18 10:31N 51°18' E 003°14'0 0.0
2016-Aug-18 09:31N 51°18' E 003°14'0 0.0
2016-Aug-18 08:31N 51°18' E 003°14'0 0.0
2016-Aug-18 07:28N 51°18' E 003°14'0 0.0
2016-Aug-18 06:31N 51°18' E 003°14'0 0.0
2016-Aug-18 05:31N 51°18' E 003°14'0 0.0
2016-Aug-18 04:31N 51°18' E 003°14'0 0.0
2016-Aug-18 03:31N 51°18' E 003°14'0 0.0
2016-Aug-18 02:31N 51°18' E 003°14'0 0.0
2016-Aug-18 01:31N 51°18' E 003°14'0 0.0
2016-Aug-18 00:31N 51°18' E 003°14'0 0.0
2016-Aug-17 23:31N 51°18' E 003°14'0 0.0
2016-Aug-17 22:31N 51°18' E 003°14'0 0.0
2016-Aug-17 21:31N 51°18' E 003°14'0 0.0
2016-Aug-17 20:31N 51°18' E 003°14'0 0.0
2016-Aug-17 19:31N 51°18' E 003°14'0 0.0
2016-Aug-17 18:31N 51°18' E 003°14'0 0.0
2016-Aug-17 17:31N 51°18' E 003°14'0 0.0
2016-Aug-17 16:31N 51°18' E 003°14'0 0.1
2016-Aug-17 15:34N 51°18' E 003°14'2 2.3
2016-Aug-17 14:33N 51°20' E 003°13'8 8.2
2016-Aug-17 13:33N 51°25' E 003°02'1110.6
2016-Aug-17 12:33N 51°24' E 002°45'5 5.4
2016-Aug-17 11:33N 51°27' E 002°38'0 0.1
2016-Aug-17 10:33N 51°27' E 002°38'0 0.0
2016-Aug-17 09:27N 51°27' E 002°38'0 0.0
2016-Aug-17 08:33N 51°27' E 002°38'0 0.0
2016-Aug-17 07:30N 51°27' E 002°38'0 0.0
2016-Aug-17 06:18N 51°27' E 002°38'0 0.0
2016-Aug-17 05:30N 51°27' E 002°38'0 0.0
2016-Aug-17 04:30N 51°27' E 002°38'0 0.0
2016-Aug-17 03:30N 51°27' E 002°38'0 0.0
2016-Aug-17 02:33N 51°27' E 002°38'0 0.1
2016-Aug-17 01:33N 51°27' E 002°38'0 0.0
2016-Aug-17 00:30N 51°27' E 002°38'0 0.1
2016-Aug-16 23:33N 51°27' E 002°38'0 0.1
2016-Aug-16 22:33N 51°27' E 002°38'0 0.0
2016-Aug-16 21:33N 51°27' E 002°38'0 0.2
2016-Aug-16 20:33N 51°27' E 002°38'4 4.4
2016-Aug-16 19:33N 51°28' E 002°45'5 4.8
2016-Aug-16 18:34N 51°23' E 002°43'1111.2
2016-Aug-16 17:33N 51°24' E 003°01'9 8.5
2016-Aug-16 16:32N 51°20' E 003°13'0 0.0
2016-Aug-16 15:32N 51°20' E 003°13'1 1.3
2016-Aug-16 14:33N 51°19' E 003°13'0 0.0
2016-Aug-16 13:33N 51°19' E 003°13'0 0.0
2016-Aug-16 12:33N 51°19' E 003°13'  

Dump ship's entire track history